Decoded Metar for KEHR (HENDERSON CITY in KY, USA) (IATA:EHR) | Meteo·Mobile Aviation Weather
aviador You're here:

KEHR Decoded Metar

HENDERSON CITY in KY, USA
Report Time2018-08-20 13:56:00
UTC Time2018-08-20 14:13:21
Flight Rules vfr VFR
Wind210° at 10 kt
W.Decomp.*RWY 27: 5.2 kt HW 8.6 kt LCW
W.Rank210° ranks 2
Current wind is above 210° avg. (8.3)
Visibility9999 m
Phenomena:N/A
Clouds:Scattered 011 Hf
Expected CloudBase > 1,200 ft AGL from Temp-Dew spread
CeilingNone
Temp26°C (ISA +12)
Dew Point23°C (84% RH)
QNH1012 hPa
Density Alt2,146 ft
Elevation384 ft
Report Wrong Elevation
Raw Report
METAR KEHR 201356Z AUTO 21010KT 10SM SCT011 26/23 A2989 RMK AO2 SLP127
T02560228=

Extra information for KEHR:More info

Metar Taf Metar & Taf Last 4 Metars F.Rules Stats Wind Profile Meteogram Temp Stats Airport Information Weather charts Add Link Nearby VenuesMetar ALERT Operation Metar Decoded Social comments

AIRNAV info for KEHR